Time;durP1;ratioP1;P1;durP2;ratioP2;P2;SDS_P1;SDS_P2;PMS_P1;PMS_P2;Temp;Humidity;BMP_temperature;BMP_pressure;BME280_temperature;BME280_humidity;BME280_pressure;Samples;Min_cycle;Max_cycle;Signal;HPM_P1;HPM_P2
2023/04/24 00:00:09;;;;;;;1.92;1.40;;;13.20;99.90;;;;;;5055505;28;20424;-88
2023/04/24 00:02:37;;;;;;;1.98;1.30;;;13.10;99.90;;;;;;5044948;28;20155;-87
2023/04/24 00:05:04;;;;;;;1.80;1.33;;;13.10;99.90;;;;;;5047067;28;20078;-88
2023/04/24 00:07:30;;;;;;;2.20;1.50;;;13.10;99.90;;;;;;5045879;28;20100;-86
2023/04/24 00:09:55;;;;;;;3.40;1.30;;;13.10;99.90;;;;;;5051312;28;20115;-88
2023/04/24 00:12:21;;;;;;;1.38;1.00;;;13.00;99.90;;;;;;5058249;28;20519;-87
2023/04/24 00:14:47;;;;;;;5.78;1.42;;;13.00;99.90;;;;;;5047201;28;20021;-85
2023/04/24 00:17:13;;;;;;;2.03;1.92;;;13.00;99.90;;;;;;5049835;28;20464;-86
2023/04/24 00:19:38;;;;;;;5.95;1.45;;;13.00;99.90;;;;;;5051399;28;20016;-85
2023/04/24 00:22:04;;;;;;;2.70;1.27;;;13.00;99.90;;;;;;5047162;28;20047;-88
2023/04/24 00:24:30;;;;;;;3.20;1.48;;;13.00;99.90;;;;;;5050002;28;20356;-88
2023/04/24 00:26:55;;;;;;;5.60;1.20;;;12.90;99.90;;;;;;5039793;28;20028;-90
2023/04/24 00:29:21;;;;;;;7.47;1.15;;;12.90;99.90;;;;;;5043332;28;20029;-87
2023/04/24 00:31:47;;;;;;;1.50;1.20;;;12.90;99.90;;;;;;5043085;28;20017;-85
2023/04/24 00:34:13;;;;;;;1.30;1.20;;;12.90;99.90;;;;;;5044029;28;20075;-89
2023/04/24 00:36:39;;;;;;;2.80;1.73;;;12.90;99.90;;;;;;5059224;28;20076;-89
2023/04/24 00:39:04;;;;;;;5.10;1.55;;;12.90;99.90;;;;;;5048712;28;20197;-88
2023/04/24 00:41:31;;;;;;;2.33;1.50;;;12.80;99.90;;;;;;5056449;28;20284;-89
2023/04/24 00:43:57;;;;;;;4.78;1.90;;;12.90;99.90;;;;;;5041123;28;20029;-85
2023/04/24 00:46:22;;;;;;;4.13;1.63;;;12.80;99.90;;;;;;5049135;28;20102;-87
2023/04/24 00:48:48;;;;;;;3.13;1.45;;;12.80;99.90;;;;;;5052052;28;20409;-87
2023/04/24 00:51:13;;;;;;;1.65;1.40;;;12.80;99.90;;;;;;5049830;28;20474;-88
2023/04/24 00:53:39;;;;;;;2.30;1.63;;;12.70;99.90;;;;;;5044459;28;20048;-87
2023/04/24 00:56:05;;;;;;;3.25;1.60;;;12.70;99.90;;;;;;5046729;28;20377;-87
2023/04/24 00:58:31;;;;;;;1.42;1.23;;;12.70;99.90;;;;;;5054104;28;20029;-83
2023/04/24 01:00:58;;;;;;;1.23;1.20;;;12.70;99.90;;;;;;5054713;28;20036;-86
2023/04/24 01:03:28;;;;;;;4.97;1.20;;;12.80;99.90;;;;;;5048687;28;20055;-87
2023/04/24 01:05:54;;;;;;;1.00;1.00;;;12.70;99.90;;;;;;5046464;28;20028;-88
2023/04/24 01:08:23;;;;;;;2.42;1.35;;;12.60;99.90;;;;;;5048390;28;20522;-86
2023/04/24 01:10:51;;;;;;;1.48;1.20;;;12.60;99.90;;;;;;5051005;28;20021;-86
2023/04/24 01:13:18;;;;;;;4.18;1.38;;;12.60;99.90;;;;;;5057092;28;20043;-88
2023/04/24 01:15:44;;;;;;;2.40;1.58;;;12.50;99.90;;;;;;5049811;28;20025;-88
2023/04/24 01:18:10;;;;;;;4.50;1.70;;;12.60;99.90;;;;;;5054810;28;20021;-90
2023/04/24 01:20:44;;;;;;;3.55;1.23;;;12.50;99.90;;;;;;5046620;28;20112;-82
2023/04/24 01:23:10;;;;;;;3.97;1.67;;;12.50;99.90;;;;;;5048830;28;20031;-91
2023/04/24 01:25:36;;;;;;;5.28;1.63;;;12.50;99.90;;;;;;5042403;28;20543;-90
2023/04/24 01:28:02;;;;;;;2.95;1.88;;;12.40;99.90;;;;;;5045854;28;20025;-87
2023/04/24 01:30:30;;;;;;;3.42;1.67;;;12.40;99.90;;;;;;5044379;28;20021;-87
2023/04/24 01:32:56;;;;;;;7.85;1.30;;;12.40;99.90;;;;;;5050142;28;20488;-86
2023/04/24 01:35:22;;;;;;;2.15;1.42;;;12.30;99.90;;;;;;5045195;28;20025;-84
2023/04/24 01:37:48;;;;;;;4.45;1.58;;;12.30;99.90;;;;;;5050381;28;20454;-88
2023/04/24 01:40:13;;;;;;;5.20;1.60;;;12.30;99.90;;;;;;5051295;28;20035;-88
2023/04/24 01:42:41;;;;;;;3.25;1.63;;;12.30;99.90;;;;;;5062534;28;20152;-89
2023/04/24 01:45:10;;;;;;;2.50;1.50;;;12.30;99.90;;;;;;5054905;28;20362;-87
2023/04/24 01:47:36;;;;;;;3.20;1.67;;;12.20;99.90;;;;;;5039493;28;20565;-89
2023/04/24 01:50:02;;;;;;;2.88;1.40;;;12.20;99.90;;;;;;5043145;28;20064;-89
2023/04/24 01:52:30;;;;;;;2.08;1.70;;;12.20;99.90;;;;;;5050031;28;20095;-89
2023/04/24 01:54:59;;;;;;;6.57;1.85;;;12.10;99.90;;;;;;5047439;28;20458;-90
2023/04/24 01:57:26;;;;;;;1.73;1.45;;;12.10;99.90;;;;;;5049618;28;20116;-88
2023/04/24 01:59:51;;;;;;;3.80;1.77;;;12.00;99.90;;;;;;5046691;28;20070;-89
2023/04/24 02:02:21;;;;;;;2.95;1.80;;;12.00;99.90;;;;;;5045930;28;20037;-86
2023/04/24 02:04:46;;;;;;;5.47;1.55;;;12.00;99.90;;;;;;5042846;28;20033;-85
2023/04/24 02:07:12;;;;;;;3.72;1.45;;;12.00;99.90;;;;;;5047359;28;20107;-87
2023/04/24 02:09:37;;;;;;;1.85;1.15;;;12.00;99.90;;;;;;5046211;28;20029;-87
2023/04/24 02:12:03;;;;;;;4.35;1.58;;;12.00;99.90;;;;;;5047042;28;20028;-90
2023/04/24 02:14:30;;;;;;;6.90;1.33;;;12.00;99.90;;;;;;5049588;28;20191;-85
2023/04/24 02:16:57;;;;;;;2.38;1.20;;;12.00;99.90;;;;;;5058467;28;20162;-89
2023/04/24 02:19:26;;;;;;;1.58;1.20;;;12.00;99.90;;;;;;5046630;28;20040;-92
2023/04/24 02:21:51;;;;;;;2.78;1.17;;;11.90;99.90;;;;;;5056658;28;20032;-88
2023/04/24 02:24:17;;;;;;;2.28;1.38;;;11.90;99.90;;;;;;5042163;28;20510;-91
2023/04/24 02:26:42;;;;;;;3.60;1.20;;;12.00;99.90;;;;;;5056024;28;20056;-86
2023/04/24 02:29:08;;;;;;;8.60;1.40;;;11.90;99.90;;;;;;5052573;28;20024;-87
2023/04/24 02:31:34;;;;;;;4.13;1.23;;;11.80;99.90;;;;;;5055873;28;20570;-85
2023/04/24 02:33:59;;;;;;;3.38;1.52;;;11.80;99.90;;;;;;5043641;28;20017;-89
2023/04/24 02:36:25;;;;;;;5.90;1.48;;;11.80;99.90;;;;;;5045516;28;20370;-88
2023/04/24 02:38:50;;;;;;;5.45;1.52;;;11.80;99.90;;;;;;5044570;28;20096;-90
2023/04/24 02:41:16;;;;;;;3.30;1.60;;;11.80;99.90;;;;;;5057672;28;20228;-90
2023/04/24 02:43:42;;;;;;;1.35;1.20;;;11.70;99.90;;;;;;5039799;28;20053;-83
2023/04/24 02:46:07;;;;;;;2.33;1.33;;;11.70;99.90;;;;;;5051207;28;20020;-89
2023/04/24 02:48:33;;;;;;;1.67;1.58;;;11.70;99.90;;;;;;5050943;28;20040;-89
2023/04/24 02:50:58;;;;;;;6.30;1.50;;;11.70;99.90;;;;;;5051778;28;20028;-89
2023/04/24 02:53:24;;;;;;;6.00;1.70;;;11.60;99.90;;;;;;5048241;28;20044;-90
2023/04/24 02:55:50;;;;;;;3.80;1.80;;;11.70;99.90;;;;;;5050792;28;20478;-83
2023/04/24 02:58:17;;;;;;;3.53;1.70;;;11.60;99.90;;;;;;5048204;28;20013;-83
2023/04/24 03:00:43;;;;;;;4.70;1.73;;;11.60;99.90;;;;;;5045185;28;20506;-86
2023/04/24 03:03:09;;;;;;;2.35;1.52;;;11.60;99.90;;;;;;5050196;28;20039;-87
2023/04/24 03:05:34;;;;;;;4.00;1.60;;;11.60;99.90;;;;;;5050402;28;20030;-84
2023/04/24 03:08:01;;;;;;;4.30;1.50;;;11.60;99.90;;;;;;5047213;28;20025;-83
2023/04/24 03:10:27;;;;;;;3.75;1.60;;;11.60;99.90;;;;;;5048022;28;20069;-83
2023/04/24 03:12:52;;;;;;;3.45;1.20;;;11.60;99.90;;;;;;5053709;28;20463;-85
2023/04/24 03:15:19;;;;;;;3.75;2.00;;;11.60;99.90;;;;;;5060454;28;20028;-93
2023/04/24 03:17:45;;;;;;;4.20;1.88;;;11.60;99.90;;;;;;5047986;28;20032;-87
2023/04/24 03:20:10;;;;;;;3.30;1.50;;;11.60;99.90;;;;;;5040263;28;20078;-82
2023/04/24 03:22:36;;;;;;;2.60;1.33;;;11.60;99.90;;;;;;5045180;28;20078;-84
2023/04/24 03:25:02;;;;;;;1.58;1.48;;;11.60;99.90;;;;;;5049229;28;20038;-85
2023/04/24 03:27:28;;;;;;;4.25;1.45;;;11.50;99.90;;;;;;5043767;28;20027;-87
2023/04/24 03:29:55;;;;;;;3.03;1.65;;;11.50;99.90;;;;;;5052804;28;20024;-91
2023/04/24 03:32:24;;;;;;;2.80;1.65;;;11.50;99.90;;;;;;5048370;28;20074;-89
2023/04/24 03:34:50;;;;;;;3.03;1.88;;;11.50;99.90;;;;;;5046751;28;20029;-86
2023/04/24 03:37:16;;;;;;;4.20;1.65;;;11.50;99.90;;;;;;5046718;28;20391;-90
2023/04/24 03:39:42;;;;;;;4.32;2.15;;;11.50;99.90;;;;;;5054064;28;20025;-90
2023/04/24 03:42:08;;;;;;;2.17;1.52;;;11.40;99.90;;;;;;5051828;28;20029;-87
2023/04/24 03:44:34;;;;;;;5.88;1.73;;;11.40;99.90;;;;;;5051968;28;20361;-91
2023/04/24 03:47:00;;;;;;;5.03;1.88;;;11.40;99.90;;;;;;5050123;28;20036;-92
2023/04/24 03:49:26;;;;;;;9.68;1.70;;;11.40;99.90;;;;;;5044417;28;20017;-88
2023/04/24 03:51:52;;;;;;;9.35;1.50;;;11.40;99.90;;;;;;5049806;28;20107;-85
2023/04/24 03:54:18;;;;;;;2.83;1.95;;;11.40;99.90;;;;;;5049262;28;20041;-85
2023/04/24 03:56:44;;;;;;;3.97;2.03;;;11.40;99.90;;;;;;5043654;28;20139;-92
2023/04/24 03:59:11;;;;;;;1.65;1.20;;;11.40;99.90;;;;;;5046702;28;20108;-92
2023/04/24 04:01:37;;;;;;;2.15;1.20;;;11.40;99.90;;;;;;5044511;28;20491;-94
2023/04/24 04:04:06;;;;;;;3.20;1.83;;;11.30;99.90;;;;;;5044770;28;20024;-92
2023/04/24 04:06:32;;;;;;;3.95;1.48;;;11.40;99.90;;;;;;5045111;28;20021;-93
2023/04/24 04:08:58;;;;;;;2.38;1.60;;;11.30;99.90;;;;;;5047803;28;20021;-87
2023/04/24 04:11:24;;;;;;;2.47;1.67;;;11.40;99.90;;;;;;5056692;28;20029;-84
2023/04/24 04:13:50;;;;;;;1.90;1.63;;;11.30;99.90;;;;;;5049265;28;20087;-89
2023/04/24 04:16:19;;;;;;;12.45;2.28;;;11.30;99.90;;;;;;5047568;28;20305;-87
2023/04/24 04:18:45;;;;;;;2.38;1.83;;;11.40;99.90;;;;;;5053022;28;20024;-91
2023/04/24 04:21:11;;;;;;;5.95;2.45;;;11.40;99.90;;;;;;5049523;28;20025;-90
2023/04/24 04:23:36;;;;;;;7.78;1.88;;;11.40;99.90;;;;;;5037984;28;20446;-89
2023/04/24 04:26:03;;;;;;;6.82;2.03;;;11.40;99.90;;;;;;5027393;28;20029;-87
2023/04/24 04:28:30;;;;;;;3.88;2.38;;;11.40;99.90;;;;;;5045622;28;20419;-93
2023/04/24 04:30:57;;;;;;;3.47;1.90;;;11.50;99.90;;;;;;5044369;28;20044;-90
2023/04/24 04:33:23;;;;;;;3.42;1.85;;;11.40;99.90;;;;;;5050947;28;20124;-93
2023/04/24 04:35:49;;;;;;;2.58;1.98;;;11.40;99.90;;;;;;5035848;28;20021;-95
2023/04/24 04:38:16;;;;;;;3.45;1.77;;;11.40;99.90;;;;;;5047746;28;20040;-94
2023/04/24 04:40:42;;;;;;;2.70;2.05;;;11.40;99.90;;;;;;5045612;28;20115;-85
2023/04/24 04:43:08;;;;;;;2.75;1.50;;;11.50;99.90;;;;;;5045818;28;20709;-94
2023/04/24 04:45:34;;;;;;;4.85;1.95;;;11.50;99.90;;;;;;5042474;28;20490;-91
2023/04/24 04:48:01;;;;;;;4.05;1.80;;;11.50;99.90;;;;;;5047102;28;20063;-90
2023/04/24 04:50:27;;;;;;;4.32;2.92;;;11.50;99.90;;;;;;5044828;28;20016;-90
2023/04/24 04:52:52;;;;;;;2.83;2.10;;;11.60;99.90;;;;;;5042854;28;20033;-93
2023/04/24 04:55:19;;;;;;;10.43;2.35;;;11.60;99.90;;;;;;5046843;28;20366;-91
2023/04/24 04:57:46;;;;;;;10.82;2.50;;;11.70;99.90;;;;;;5044946;28;20116;-90
2023/04/24 05:00:12;;;;;;;5.25;2.47;;;11.70;99.90;;;;;;5050501;28;20108;-92
2023/04/24 05:02:39;;;;;;;5.78;2.20;;;11.70;99.90;;;;;;5053814;28;20039;-90
2023/04/24 05:05:05;;;;;;;4.95;1.98;;;11.80;99.90;;;;;;5037280;28;20021;-94
2023/04/24 05:07:31;;;;;;;6.00;2.60;;;11.80;99.90;;;;;;5042977;28;20390;-91
2023/04/24 05:09:56;;;;;;;4.80;2.58;;;11.80;99.90;;;;;;5047153;28;20041;-88
2023/04/24 05:12:22;;;;;;;12.90;4.55;;;11.80;99.90;;;;;;5046796;28;20721;-85
2023/04/24 05:14:48;;;;;;;17.02;8.30;;;11.80;99.90;;;;;;5047673;28;20029;-86
2023/04/24 05:17:13;;;;;;;15.13;5.72;;;11.80;99.90;;;;;;5049208;28;20033;-90
2023/04/24 05:19:39;;;;;;;4.00;2.40;;;11.80;99.90;;;;;;5042509;28;20021;-86
2023/04/24 05:22:06;;;;;;;4.35;2.75;;;11.80;99.90;;;;;;5049146;28;20048;-91
2023/04/24 05:24:33;;;;;;;7.80;3.70;;;11.80;99.90;;;;;;5042458;28;20043;-92
2023/04/24 05:26:59;;;;;;;8.15;2.20;;;11.80;99.90;;;;;;5033368;28;20372;-86
2023/04/24 05:29:26;;;;;;;3.58;2.53;;;11.80;99.90;;;;;;5042029;28;20101;-89
2023/04/24 05:31:52;;;;;;;4.50;1.92;;;11.80;99.90;;;;;;5043639;28;20107;-90
2023/04/24 05:34:19;;;;;;;4.75;1.65;;;11.90;99.90;;;;;;5041611;28;20028;-85
2023/04/24 05:36:44;;;;;;;2.80;1.67;;;11.90;99.90;;;;;;5046835;28;20313;-84
2023/04/24 05:39:10;;;;;;;3.28;2.72;;;11.90;99.90;;;;;;5048641;28;20020;-89
2023/04/24 05:41:37;;;;;;;2.78;2.30;;;11.90;99.90;;;;;;5050191;28;20045;-84
2023/04/24 05:44:02;;;;;;;4.78;1.50;;;12.00;99.90;;;;;;5054430;28;20488;-94
2023/04/24 05:46:28;;;;;;;2.20;1.50;;;12.00;99.90;;;;;;5055037;28;20021;-87
2023/04/24 05:48:53;;;;;;;2.55;1.65;;;12.00;99.90;;;;;;5043400;28;20024;-91
2023/04/24 05:51:19;;;;;;;2.05;1.50;;;12.00;99.90;;;;;;5041105;28;20024;-84
2023/04/24 05:53:45;;;;;;;3.65;1.70;;;12.00;99.90;;;;;;5052472;28;20025;-91
2023/04/24 05:56:10;;;;;;;5.65;1.45;;;12.00;99.90;;;;;;5049521;28;20083;-87
2023/04/24 05:58:37;;;;;;;2.55;1.67;;;12.00;99.90;;;;;;5047077;28;20029;-88
2023/04/24 06:01:04;;;;;;;5.93;1.65;;;12.00;99.90;;;;;;5046658;28;20021;-85
2023/04/24 06:03:29;;;;;;;4.97;1.67;;;12.10;99.90;;;;;;5039779;28;20033;-90
2023/04/24 06:05:55;;;;;;;9.20;1.77;;;12.10;99.90;;;;;;5045959;28;20390;-87
2023/04/24 06:08:21;;;;;;;4.28;1.35;;;12.20;99.90;;;;;;5042047;28;20028;-88
2023/04/24 06:10:46;;;;;;;12.02;1.77;;;12.10;99.90;;;;;;5041525;28;20025;-85
2023/04/24 06:13:12;;;;;;;33.60;4.75;;;12.10;99.90;;;;;;5051342;28;20454;-93
2023/04/24 06:15:38;;;;;;;6.22;1.80;;;12.10;99.90;;;;;;5050523;28;20129;-89
2023/04/24 06:18:03;;;;;;;3.38;1.50;;;12.10;99.90;;;;;;5048300;28;20025;-88
2023/04/24 06:20:29;;;;;;;2.47;1.33;;;12.10;99.90;;;;;;5043669;28;20025;-90
2023/04/24 06:22:55;;;;;;;3.03;1.60;;;12.10;99.90;;;;;;5044235;28;20028;-90
2023/04/24 06:25:29;;;;;;;3.20;1.42;;;12.10;99.90;;;;;;5039974;28;20017;-86
2023/04/24 06:27:55;;;;;;;2.55;1.50;;;12.10;99.90;;;;;;5045033;28;20131;-86
2023/04/24 06:30:22;;;;;;;2.38;1.33;;;12.10;99.90;;;;;;5039862;28;20025;-85
2023/04/24 06:32:47;;;;;;;5.18;1.60;;;12.20;99.90;;;;;;5039264;28;20037;-91
2023/04/24 06:35:13;;;;;;;5.35;1.30;;;12.10;99.90;;;;;;5043592;28;20490;-89
2023/04/24 06:37:42;;;;;;;4.55;1.20;;;12.20;99.90;;;;;;5054117;28;20164;-93
2023/04/24 06:40:08;;;;;;;2.10;1.25;;;12.20;99.90;;;;;;5047338;28;20100;-89
2023/04/24 06:42:35;;;;;;;4.57;1.60;;;12.20;99.90;;;;;;5050141;28;20381;-88
2023/04/24 06:45:00;;;;;;;5.85;1.00;;;12.20;99.90;;;;;;5054920;28;20021;-90
2023/04/24 06:47:26;;;;;;;2.10;1.20;;;12.20;99.90;;;;;;5048580;28;20032;-92
2023/04/24 06:49:52;;;;;;;1.40;1.10;;;12.30;99.90;;;;;;5042622;28;20022;-90
2023/04/24 06:52:18;;;;;;;4.10;1.30;;;12.30;99.90;;;;;;5044552;28;20768;-92
2023/04/24 06:54:44;;;;;;;8.65;1.17;;;12.30;99.90;;;;;;5051615;28;20051;-89
2023/04/24 06:57:10;;;;;;;0.85;0.85;;;12.40;99.90;;;;;;5042328;28;20437;-86
2023/04/24 06:59:36;;;;;;;4.68;1.20;;;12.40;99.90;;;;;;5045720;28;20428;-90
2023/04/24 07:02:02;;;;;;;1.77;1.10;;;12.30;99.90;;;;;;5056730;28;20129;-93
2023/04/24 07:04:28;;;;;;;16.20;3.33;;;12.30;99.90;;;;;;5041930;28;20013;-92
2023/04/24 07:06:57;;;;;;;4.70;1.23;;;12.30;99.90;;;;;;5041356;28;20021;-91
2023/04/24 07:09:25;;;;;;;3.58;1.30;;;12.40;99.90;;;;;;5039459;28;20051;-92
2023/04/24 07:11:51;;;;;;;2.67;1.20;;;12.40;99.90;;;;;;5053857;28;20021;-88
2023/04/24 07:14:17;;;;;;;9.70;1.23;;;12.40;99.90;;;;;;5041733;28;20044;-86
2023/04/24 07:16:43;;;;;;;8.43;1.35;;;12.50;99.90;;;;;;5049648;28;20040;-87
2023/04/24 07:19:09;;;;;;;7.70;1.60;;;12.50;99.90;;;;;;5043122;28;20461;-89
2023/04/24 07:21:36;;;;;;;1.50;1.08;;;12.50;99.90;;;;;;5042210;28;20021;-91
2023/04/24 07:24:02;;;;;;;2.00;1.17;;;12.50;99.90;;;;;;5045527;28;20049;-90
2023/04/24 07:26:29;;;;;;;4.55;1.10;;;12.50;99.90;;;;;;5039087;28;20052;-92
2023/04/24 07:28:55;;;;;;;4.85;1.13;;;12.60;99.90;;;;;;5045997;28;20107;-90
2023/04/24 07:31:20;;;;;;;2.08;1.10;;;12.50;99.90;;;;;;5044597;28;20099;-91
2023/04/24 07:33:49;;;;;;;1.80;1.10;;;12.50;99.90;;;;;;5045097;28;20032;-85
2023/04/24 07:36:18;;;;;;;2.70;1.23;;;12.50;99.90;;;;;;5047127;28;20020;-94
2023/04/24 07:38:48;;;;;;;2.78;0.95;;;12.50;99.90;;;;;;5049601;28;20029;-93
2023/04/24 07:41:13;;;;;;;3.97;1.13;;;12.50;99.90;;;;;;5049087;28;20074;-90
2023/04/24 07:43:39;;;;;;;2.15;1.20;;;12.60;99.90;;;;;;5042292;28;20028;-91
2023/04/24 07:46:06;;;;;;;1.65;1.17;;;12.60;99.90;;;;;;5044228;28;20371;-88
2023/04/24 07:48:31;;;;;;;3.28;1.40;;;12.50;99.90;;;;;;5046898;28;20021;-92
2023/04/24 07:50:57;;;;;;;1.85;1.00;;;12.50;99.90;;;;;;5042883;28;20124;-90
2023/04/24 07:53:23;;;;;;;4.55;1.20;;;12.50;99.90;;;;;;5043021;28;20118;-92
2023/04/24 07:55:48;;;;;;;1.30;1.08;;;12.50;99.90;;;;;;5047260;28;20385;-88
2023/04/24 07:58:14;;;;;;;2.60;1.10;;;12.60;99.90;;;;;;5050732;28;20021;-91
2023/04/24 08:00:39;;;;;;;1.27;0.95;;;12.50;99.90;;;;;;5035730;28;20052;-91
2023/04/24 08:03:05;;;;;;;5.80;0.93;;;12.60;99.90;;;;;;5049328;28;20036;-89
2023/04/24 08:05:31;;;;;;;4.70;1.40;;;12.60;99.90;;;;;;5050527;28;20017;-90
2023/04/24 08:07:56;;;;;;;1.70;0.85;;;12.60;99.90;;;;;;5041886;28;20024;-91
2023/04/24 08:10:23;;;;;;;1.10;0.93;;;12.70;99.90;;;;;;5038876;28;20033;-94
2023/04/24 08:12:48;;;;;;;3.45;1.23;;;12.90;99.90;;;;;;5033092;28;20079;-92
2023/04/24 08:15:14;;;;;;;3.75;1.10;;;12.90;99.90;;;;;;5042452;28;20017;-90
2023/04/24 08:17:40;;;;;;;0.85;0.70;;;12.90;99.90;;;;;;5052354;28;20485;-89
